sensor_id;sensor_type;location;lat;lon;timestamp;P1;durP1;ratioP1;P2;durP2;ratioP2
19944;SDS011;10134;50.952;6.930;2022-11-09T00:01:02;2.03;;;1.10;;
19944;SDS011;10134;50.952;6.930;2022-11-09T00:03:30;2.45;;;1.02;;
19944;SDS011;10134;50.952;6.930;2022-11-09T00:05:58;3.03;;;1.52;;
19944;SDS011;10134;50.952;6.930;2022-11-09T00:08:26;1.23;;;1.00;;
19944;SDS011;10134;50.952;6.930;2022-11-09T00:10:53;1.70;;;1.13;;
19944;SDS011;10134;50.952;6.930;2022-11-09T00:13:21;2.88;;;1.00;;
19944;SDS011;10134;50.952;6.930;2022-11-09T00:15:49;2.92;;;1.30;;
19944;SDS011;10134;50.952;6.930;2022-11-09T00:18:16;2.50;;;1.20;;
19944;SDS011;10134;50.952;6.930;2022-11-09T00:20:43;3.65;;;1.27;;
19944;SDS011;10134;50.952;6.930;2022-11-09T00:23:17;2.40;;;1.27;;
19944;SDS011;10134;50.952;6.930;2022-11-09T00:25:45;2.30;;;0.93;;
19944;SDS011;10134;50.952;6.930;2022-11-09T00:28:13;4.55;;;1.23;;
19944;SDS011;10134;50.952;6.930;2022-11-09T00:30:40;1.90;;;1.23;;
19944;SDS011;10134;50.952;6.930;2022-11-09T00:33:08;1.92;;;1.30;;
19944;SDS011;10134;50.952;6.930;2022-11-09T00:35:37;4.97;;;1.27;;
19944;SDS011;10134;50.952;6.930;2022-11-09T00:38:05;5.47;;;1.23;;
19944;SDS011;10134;50.952;6.930;2022-11-09T00:40:32;2.75;;;1.10;;
19944;SDS011;10134;50.952;6.930;2022-11-09T00:42:59;3.13;;;1.30;;
19944;SDS011;10134;50.952;6.930;2022-11-09T00:45:27;1.67;;;1.00;;
19944;SDS011;10134;50.952;6.930;2022-11-09T00:47:54;2.33;;;1.33;;
19944;SDS011;10134;50.952;6.930;2022-11-09T00:50:21;3.35;;;1.38;;
19944;SDS011;10134;50.952;6.930;2022-11-09T00:52:49;2.42;;;0.98;;
19944;SDS011;10134;50.952;6.930;2022-11-09T00:55:16;3.08;;;1.10;;
19944;SDS011;10134;50.952;6.930;2022-11-09T00:57:49;2.42;;;1.25;;
19944;SDS011;10134;50.952;6.930;2022-11-09T01:00:20;2.20;;;1.30;;
19944;SDS011;10134;50.952;6.930;2022-11-09T01:02:49;1.45;;;1.10;;
19944;SDS011;10134;50.952;6.930;2022-11-09T01:05:18;6.82;;;1.10;;
19944;SDS011;10134;50.952;6.930;2022-11-09T01:07:47;1.45;;;0.85;;
19944;SDS011;10134;50.952;6.930;2022-11-09T01:10:15;2.58;;;1.40;;
19944;SDS011;10134;50.952;6.930;2022-11-09T01:12:45;1.70;;;1.08;;
19944;SDS011;10134;50.952;6.930;2022-11-09T01:15:13;2.17;;;1.08;;
19944;SDS011;10134;50.952;6.930;2022-11-09T01:17:41;2.88;;;0.77;;
19944;SDS011;10134;50.952;6.930;2022-11-09T01:20:08;1.60;;;0.77;;
19944;SDS011;10134;50.952;6.930;2022-11-09T01:22:36;2.75;;;1.35;;
19944;SDS011;10134;50.952;6.930;2022-11-09T01:25:03;5.68;;;1.17;;
19944;SDS011;10134;50.952;6.930;2022-11-09T01:27:31;5.40;;;0.93;;
19944;SDS011;10134;50.952;6.930;2022-11-09T01:29:59;1.75;;;1.20;;
19944;SDS011;10134;50.952;6.930;2022-11-09T01:32:31;1.02;;;0.80;;
19944;SDS011;10134;50.952;6.930;2022-11-09T01:34:58;3.78;;;1.50;;
19944;SDS011;10134;50.952;6.930;2022-11-09T01:37:28;1.88;;;0.98;;
19944;SDS011;10134;50.952;6.930;2022-11-09T01:39:55;1.92;;;1.23;;
19944;SDS011;10134;50.952;6.930;2022-11-09T01:42:23;1.80;;;1.00;;
19944;SDS011;10134;50.952;6.930;2022-11-09T01:47:44;2.05;;;1.00;;
19944;SDS011;10134;50.952;6.930;2022-11-09T01:50:15;3.58;;;0.80;;
19944;SDS011;10134;50.952;6.930;2022-11-09T01:52:50;1.95;;;1.02;;
19944;SDS011;10134;50.952;6.930;2022-11-09T01:55:18;2.08;;;0.88;;
19944;SDS011;10134;50.952;6.930;2022-11-09T01:57:52;2.65;;;1.13;;
19944;SDS011;10134;50.952;6.930;2022-11-09T02:00:23;1.58;;;1.10;;
19944;SDS011;10134;50.952;6.930;2022-11-09T02:02:57;2.20;;;0.70;;
19944;SDS011;10134;50.952;6.930;2022-11-09T02:05:32;3.38;;;1.80;;
19944;SDS011;10134;50.952;6.930;2022-11-09T02:08:02;1.98;;;0.98;;
19944;SDS011;10134;50.952;6.930;2022-11-09T02:10:33;2.75;;;1.40;;
19944;SDS011;10134;50.952;6.930;2022-11-09T02:13:15;1.63;;;0.73;;
19944;SDS011;10134;50.952;6.930;2022-11-09T02:15:46;5.80;;;1.08;;
19944;SDS011;10134;50.952;6.930;2022-11-09T02:18:15;2.75;;;0.95;;
19944;SDS011;10134;50.952;6.930;2022-11-09T02:20:44;2.53;;;0.98;;
19944;SDS011;10134;50.952;6.930;2022-11-09T02:23:15;2.67;;;0.95;;
19944;SDS011;10134;50.952;6.930;2022-11-09T02:25:45;3.00;;;1.00;;
19944;SDS011;10134;50.952;6.930;2022-11-09T02:28:17;2.92;;;1.10;;
19944;SDS011;10134;50.952;6.930;2022-11-09T02:30:45;2.65;;;0.95;;
19944;SDS011;10134;50.952;6.930;2022-11-09T02:33:16;3.17;;;0.70;;
19944;SDS011;10134;50.952;6.930;2022-11-09T02:35:44;2.13;;;1.00;;
19944;SDS011;10134;50.952;6.930;2022-11-09T02:38:12;1.88;;;1.00;;
19944;SDS011;10134;50.952;6.930;2022-11-09T02:40:42;3.30;;;1.10;;
19944;SDS011;10134;50.952;6.930;2022-11-09T02:43:12;3.05;;;1.15;;
19944;SDS011;10134;50.952;6.930;2022-11-09T02:45:43;2.55;;;1.33;;
19944;SDS011;10134;50.952;6.930;2022-11-09T02:48:10;2.88;;;1.20;;
19944;SDS011;10134;50.952;6.930;2022-11-09T02:50:37;4.35;;;1.50;;
19944;SDS011;10134;50.952;6.930;2022-11-09T02:53:05;5.13;;;1.20;;
19944;SDS011;10134;50.952;6.930;2022-11-09T02:55:35;7.15;;;2.17;;
19944;SDS011;10134;50.952;6.930;2022-11-09T02:58:03;4.38;;;1.83;;
19944;SDS011;10134;50.952;6.930;2022-11-09T03:00:30;3.90;;;1.20;;
19944;SDS011;10134;50.952;6.930;2022-11-09T03:02:57;2.95;;;1.30;;
19944;SDS011;10134;50.952;6.930;2022-11-09T03:05:25;3.67;;;1.55;;
19944;SDS011;10134;50.952;6.930;2022-11-09T03:07:52;2.97;;;1.90;;
19944;SDS011;10134;50.952;6.930;2022-11-09T03:10:20;1.80;;;1.17;;
19944;SDS011;10134;50.952;6.930;2022-11-09T03:12:48;2.20;;;1.13;;
19944;SDS011;10134;50.952;6.930;2022-11-09T03:15:15;2.25;;;0.70;;
19944;SDS011;10134;50.952;6.930;2022-11-09T03:17:45;2.25;;;1.05;;
19944;SDS011;10134;50.952;6.930;2022-11-09T03:20:13;2.97;;;1.15;;
19944;SDS011;10134;50.952;6.930;2022-11-09T03:22:42;1.38;;;1.00;;
19944;SDS011;10134;50.952;6.930;2022-11-09T03:25:09;3.20;;;1.17;;
19944;SDS011;10134;50.952;6.930;2022-11-09T03:27:37;4.10;;;1.05;;
19944;SDS011;10134;50.952;6.930;2022-11-09T03:30:05;1.75;;;0.90;;
19944;SDS011;10134;50.952;6.930;2022-11-09T03:32:33;1.92;;;0.73;;
19944;SDS011;10134;50.952;6.930;2022-11-09T03:35:01;2.22;;;1.00;;
19944;SDS011;10134;50.952;6.930;2022-11-09T03:37:28;1.42;;;0.98;;
19944;SDS011;10134;50.952;6.930;2022-11-09T03:39:55;2.90;;;0.98;;
19944;SDS011;10134;50.952;6.930;2022-11-09T03:42:22;5.82;;;1.23;;
19944;SDS011;10134;50.952;6.930;2022-11-09T03:44:50;2.05;;;1.10;;
19944;SDS011;10134;50.952;6.930;2022-11-09T03:47:17;2.08;;;1.77;;
19944;SDS011;10134;50.952;6.930;2022-11-09T03:49:44;1.15;;;0.88;;
19944;SDS011;10134;50.952;6.930;2022-11-09T03:52:11;3.60;;;1.17;;
19944;SDS011;10134;50.952;6.930;2022-11-09T03:54:38;1.63;;;1.10;;
19944;SDS011;10134;50.952;6.930;2022-11-09T03:57:06;3.10;;;1.55;;
19944;SDS011;10134;50.952;6.930;2022-11-09T03:59:33;1.92;;;1.30;;
19944;SDS011;10134;50.952;6.930;2022-11-09T04:02:01;3.08;;;1.40;;
19944;SDS011;10134;50.952;6.930;2022-11-09T04:04:29;2.60;;;1.13;;
19944;SDS011;10134;50.952;6.930;2022-11-09T04:06:56;2.17;;;1.38;;
19944;SDS011;10134;50.952;6.930;2022-11-09T04:09:23;3.00;;;1.50;;
19944;SDS011;10134;50.952;6.930;2022-11-09T04:11:50;1.63;;;1.23;;
19944;SDS011;10134;50.952;6.930;2022-11-09T04:14:18;2.92;;;1.55;;
19944;SDS011;10134;50.952;6.930;2022-11-09T04:16:45;2.05;;;1.30;;
19944;SDS011;10134;50.952;6.930;2022-11-09T04:19:12;1.85;;;1.10;;
19944;SDS011;10134;50.952;6.930;2022-11-09T04:21:39;4.00;;;1.30;;
19944;SDS011;10134;50.952;6.930;2022-11-09T04:24:07;1.25;;;1.10;;
19944;SDS011;10134;50.952;6.930;2022-11-09T04:26:34;2.78;;;1.25;;
19944;SDS011;10134;50.952;6.930;2022-11-09T04:29:01;2.30;;;1.20;;
19944;SDS011;10134;50.952;6.930;2022-11-09T04:31:29;2.22;;;0.93;;
19944;SDS011;10134;50.952;6.930;2022-11-09T04:33:56;3.38;;;1.02;;
19944;SDS011;10134;50.952;6.930;2022-11-09T04:36:23;2.20;;;1.05;;
19944;SDS011;10134;50.952;6.930;2022-11-09T04:38:51;1.27;;;1.02;;
19944;SDS011;10134;50.952;6.930;2022-11-09T04:41:18;4.05;;;1.10;;
19944;SDS011;10134;50.952;6.930;2022-11-09T04:43:45;3.05;;;1.30;;
19944;SDS011;10134;50.952;6.930;2022-11-09T04:46:13;3.10;;;1.10;;
19944;SDS011;10134;50.952;6.930;2022-11-09T04:48:40;2.28;;;0.88;;
19944;SDS011;10134;50.952;6.930;2022-11-09T04:51:08;3.10;;;0.85;;
19944;SDS011;10134;50.952;6.930;2022-11-09T04:53:36;2.08;;;1.10;;
19944;SDS011;10134;50.952;6.930;2022-11-09T04:56:04;4.50;;;1.20;;
19944;SDS011;10134;50.952;6.930;2022-11-09T04:58:33;4.75;;;2.10;;
19944;SDS011;10134;50.952;6.930;2022-11-09T05:01:01;3.88;;;2.05;;
19944;SDS011;10134;50.952;6.930;2022-11-09T05:03:33;4.28;;;1.80;;
19944;SDS011;10134;50.952;6.930;2022-11-09T05:06:01;4.95;;;1.83;;
19944;SDS011;10134;50.952;6.930;2022-11-09T05:08:49;4.65;;;1.92;;
19944;SDS011;10134;50.952;6.930;2022-11-09T05:11:16;3.47;;;1.17;;
19944;SDS011;10134;50.952;6.930;2022-11-09T05:13:44;2.38;;;1.00;;
19944;SDS011;10134;50.952;6.930;2022-11-09T05:16:11;2.22;;;1.00;;
19944;SDS011;10134;50.952;6.930;2022-11-09T05:18:39;3.35;;;1.30;;
19944;SDS011;10134;50.952;6.930;2022-11-09T05:21:06;4.45;;;1.20;;
19944;SDS011;10134;50.952;6.930;2022-11-09T05:23:33;4.43;;;1.20;;
19944;SDS011;10134;50.952;6.930;2022-11-09T05:26:19;2.67;;;1.13;;
19944;SDS011;10134;50.952;6.930;2022-11-09T05:28:46;2.28;;;0.98;;
19944;SDS011;10134;50.952;6.930;2022-11-09T05:31:14;2.38;;;0.90;;
19944;SDS011;10134;50.952;6.930;2022-11-09T05:33:41;3.30;;;1.10;;
19944;SDS011;10134;50.952;6.930;2022-11-09T05:36:08;5.30;;;1.50;;
19944;SDS011;10134;50.952;6.930;2022-11-09T05:38:35;2.83;;;1.10;;
19944;SDS011;10134;50.952;6.930;2022-11-09T05:41:03;2.03;;;1.10;;
19944;SDS011;10134;50.952;6.930;2022-11-09T05:43:30;6.38;;;1.30;;
19944;SDS011;10134;50.952;6.930;2022-11-09T05:45:57;7.43;;;1.27;;
19944;SDS011;10134;50.952;6.930;2022-11-09T05:48:32;3.40;;;1.45;;
19944;SDS011;10134;50.952;6.930;2022-11-09T05:51:00;3.20;;;1.77;;
19944;SDS011;10134;50.952;6.930;2022-11-09T05:53:30;4.82;;;1.38;;
19944;SDS011;10134;50.952;6.930;2022-11-09T05:56:02;8.40;;;1.92;;
19944;SDS011;10134;50.952;6.930;2022-11-09T05:58:34;3.50;;;1.65;;
19944;SDS011;10134;50.952;6.930;2022-11-09T06:01:04;5.72;;;1.70;;
19944;SDS011;10134;50.952;6.930;2022-11-09T06:03:33;6.28;;;1.48;;
19944;SDS011;10134;50.952;6.930;2022-11-09T06:06:01;2.22;;;1.30;;
19944;SDS011;10134;50.952;6.930;2022-11-09T06:08:34;3.38;;;1.48;;
19944;SDS011;10134;50.952;6.930;2022-11-09T06:11:03;1.52;;;1.15;;
19944;SDS011;10134;50.952;6.930;2022-11-09T06:13:32;5.80;;;1.60;;
19944;SDS011;10134;50.952;6.930;2022-11-09T06:16:00;3.13;;;1.13;;
19944;SDS011;10134;50.952;6.930;2022-11-09T06:18:29;5.05;;;1.80;;
19944;SDS011;10134;50.952;6.930;2022-11-09T06:20:59;5.70;;;2.10;;
19944;SDS011;10134;50.952;6.930;2022-11-09T06:23:27;5.85;;;1.80;;
19944;SDS011;10134;50.952;6.930;2022-11-09T06:25:58;4.50;;;1.45;;
19944;SDS011;10134;50.952;6.930;2022-11-09T06:28:26;3.38;;;1.42;;
19944;SDS011;10134;50.952;6.930;2022-11-09T06:30:57;2.65;;;1.30;;
19944;SDS011;10134;50.952;6.930;2022-11-09T06:33:28;2.58;;;1.33;;
19944;SDS011;10134;50.952;6.930;2022-11-09T06:35:56;7.60;;;1.88;;
19944;SDS011;10134;50.952;6.930;2022-11-09T06:38:24;2.42;;;1.25;;
19944;SDS011;10134;50.952;6.930;2022-11-09T06:40:52;3.08;;;1.30;;
19944;SDS011;10134;50.952;6.930;2022-11-09T06:43:21;2.25;;;1.52;;
19944;SDS011;10134;50.952;6.930;2022-11-09T06:45:49;3.47;;;1.70;;
19944;SDS011;10134;50.952;6.930;2022-11-09T06:48:18;3.72;;;1.90;;
19944;SDS011;10134;50.952;6.930;2022-11-09T06:50:47;5.22;;;1.80;;
19944;SDS011;10134;50.952;6.930;2022-11-09T06:53:15;5.25;;;1.48;;
19944;SDS011;10134;50.952;6.930;2022-11-09T06:55:43;3.00;;;1.73;;
19944;SDS011;10134;50.952;6.930;2022-11-09T06:58:16;2.92;;;1.52;;
19944;SDS011;10134;50.952;6.930;2022-11-09T07:00:45;6.88;;;1.88;;
19944;SDS011;10134;50.952;6.930;2022-11-09T07:03:13;10.45;;;1.85;;
19944;SDS011;10134;50.952;6.930;2022-11-09T07:05:41;4.65;;;2.00;;
19944;SDS011;10134;50.952;6.930;2022-11-09T07:08:09;3.13;;;1.60;;
19944;SDS011;10134;50.952;6.930;2022-11-09T07:10:37;5.82;;;1.67;;
19944;SDS011;10134;50.952;6.930;2022-11-09T07:13:05;4.15;;;1.80;;
19944;SDS011;10134;50.952;6.930;2022-11-09T07:15:34;4.18;;;1.90;;
19944;SDS011;10134;50.952;6.930;2022-11-09T07:18:03;7.32;;;1.90;;
19944;SDS011;10134;50.952;6.930;2022-11-09T07:20:31;6.10;;;1.60;;
19944;SDS011;10134;50.952;6.930;2022-11-09T07:23:02;8.40;;;1.88;;
19944;SDS011;10134;50.952;6.930;2022-11-09T07:25:29;6.30;;;1.92;;
19944;SDS011;10134;50.952;6.930;2022-11-09T07:28:01;3.65;;;1.88;;
19944;SDS011;10134;50.952;6.930;2022-11-09T07:30:30;5.97;;;1.70;;
19944;SDS011;10134;50.952;6.930;2022-11-09T07:32:57;4.20;;;2.00;;
19944;SDS011;10134;50.952;6.930;2022-11-09T07:35:35;5.07;;;1.98;;
19944;SDS011;10134;50.952;6.930;2022-11-09T07:38:03;5.70;;;2.83;;
19944;SDS011;10134;50.952;6.930;2022-11-09T07:40:31;7.45;;;4.13;;
19944;SDS011;10134;50.952;6.930;2022-11-09T07:42:59;8.25;;;3.78;;
19944;SDS011;10134;50.952;6.930;2022-11-09T07:45:27;9.40;;;2.53;;
19944;SDS011;10134;50.952;6.930;2022-11-09T07:47:56;8.30;;;2.80;;
19944;SDS011;10134;50.952;6.930;2022-11-09T07:50:24;4.90;;;2.00;;
19944;SDS011;10134;50.952;6.930;2022-11-09T07:52:56;4.60;;;1.98;;
19944;SDS011;10134;50.952;6.930;2022-11-09T07:55:24;5.75;;;2.75;;
19944;SDS011;10134;50.952;6.930;2022-11-09T07:58:00;6.57;;;2.10;;
19944;SDS011;10134;50.952;6.930;2022-11-09T08:00:33;3.47;;;1.73;;
19944;SDS011;10134;50.952;6.930;2022-11-09T08:03:02;1.85;;;1.25;;
19944;SDS011;10134;50.952;6.930;2022-11-09T08:05:30;5.50;;;1.55;;
19944;SDS011;10134;50.952;6.930;2022-11-09T08:07:59;2.08;;;1.33;;
19944;SDS011;10134;50.952;6.930;2022-11-09T08:10:28;4.82;;;1.40;;
19944;SDS011;10134;50.952;6.930;2022-11-09T08:12:58;3.92;;;1.70;;
19944;SDS011;10134;50.952;6.930;2022-11-09T08:15:27;3.30;;;1.42;;
19944;SDS011;10134;50.952;6.930;2022-11-09T08:18:02;11.63;;;3.97;;
19944;SDS011;10134;50.952;6.930;2022-11-09T08:20:30;5.07;;;2.58;;
19944;SDS011;10134;50.952;6.930;2022-11-09T08:22:58;2.70;;;1.33;;
19944;SDS011;10134;50.952;6.930;2022-11-09T08:25:33;3.70;;;1.20;;
19944;SDS011;10134;50.952;6.930;2022-11-09T08:28:01;4.28;;;1.80;;
19944;SDS011;10134;50.952;6.930;2022-11-09T08:30:29;5.65;;;1.40;;
19944;SDS011;10134;50.952;6.930;2022-11-09T08:32:58;5.85;;;1.70;;
19944;SDS011;10134;50.952;6.930;2022-11-09T08:35:27;6.03;;;1.63;;
19944;SDS011;10134;50.952;6.930;2022-11-09T08:37:55;3.25;;;1.50;;
19944;SDS011;10134;50.952;6.930;2022-11-09T08:40:25;4.50;;;1.65;;
19944;SDS011;10134;50.952;6.930;2022-11-09T08:42:54;5.07;;;1.48;;
19944;SDS011;10134;50.952;6.930;2022-11-09T08:45:25;4.38;;;1.80;;
19944;SDS011;10134;50.952;6.930;2022-11-09T08:47:56;4.55;;;1.67;;
19944;SDS011;10134;50.952;6.930;2022-11-09T08:50:26;7.30;;;1.67;;
19944;SDS011;10134;50.952;6.930;2022-11-09T08:52:54;9.20;;;3.03;;
19944;SDS011;10134;50.952;6.930;2022-11-09T08:55:21;8.23;;;2.55;;
19944;SDS011;10134;50.952;6.930;2022-11-09T08:57:53;6.95;;;2.35;;
19944;SDS011;10134;50.952;6.930;2022-11-09T09:00:21;6.55;;;1.88;;
19944;SDS011;10134;50.952;6.930;2022-11-09T09:02:49;5.43;;;3.00;;
19944;SDS011;10134;50.952;6.930;2022-11-09T09:05:16;10.32;;;3.05;;
19944;SDS011;10134;50.952;6.930;2022-11-09T09:07:44;6.35;;;2.20;;
19944;SDS011;10134;50.952;6.930;2022-11-09T09:10:11;7.32;;;1.90;;
19944;SDS011;10134;50.952;6.930;2022-11-09T09:12:39;4.88;;;1.83;;
19944;SDS011;10134;50.952;6.930;2022-11-09T09:15:06;10.13;;;1.77;;
19944;SDS011;10134;50.952;6.930;2022-11-09T09:17:34;4.75;;;1.30;;
19944;SDS011;10134;50.952;6.930;2022-11-09T09:20:02;3.70;;;0.90;;
19944;SDS011;10134;50.952;6.930;2022-11-09T09:22:31;3.67;;;1.13;;
19944;SDS011;10134;50.952;6.930;2022-11-09T09:24:59;3.45;;;1.25;;
19944;SDS011;10134;50.952;6.930;2022-11-09T09:27:26;2.65;;;1.13;;
19944;SDS011;10134;50.952;6.930;2022-11-09T09:29:55;1.90;;;0.63;;
19944;SDS011;10134;50.952;6.930;2022-11-09T09:32:23;1.10;;;0.90;;
19944;SDS011;10134;50.952;6.930;2022-11-09T09:34:50;4.63;;;1.50;;
19944;SDS011;10134;50.952;6.930;2022-11-09T09:37:18;2.95;;;0.98;;
19944;SDS011;10134;50.952;6.930;2022-11-09T09:39:45;5.40;;;1.13;;
19944;SDS011;10134;50.952;6.930;2022-11-09T09:42:19;3.67;;;0.93;;
19944;SDS011;10134;50.952;6.930;2022-11-09T09:44:55;4.32;;;1.38;;
19944;SDS011;10134;50.952;6.930;2022-11-09T09:47:44;2.35;;;0.82;;
19944;SDS011;10134;50.952;6.930;2022-11-09T09:50:34;5.03;;;1.40;;
19944;SDS011;10134;50.952;6.930;2022-11-09T09:56:04;4.00;;;1.73;;
19944;SDS011;10134;50.952;6.930;2022-11-09T09:58:38;3.75;;;1.00;;
19944;SDS011;10134;50.952;6.930;2022-11-09T10:01:15;3.97;;;1.30;;
19944;SDS011;10134;50.952;6.930;2022-11-09T10:03:48;1.60;;;0.90;;
19944;SDS011;10134;50.952;6.930;2022-11-09T10:17:46;4.00;;;0.88;;
19944;SDS011;10134;50.952;6.930;2022-11-09T10:26:16;5.60;;;1.10;;
19944;SDS011;10134;50.952;6.930;2022-11-09T10:28:46;2.22;;;0.98;;
19944;SDS011;10134;50.952;6.930;2022-11-09T10:31:41;3.05;;;0.82;;
19944;SDS011;10134;50.952;6.930;2022-11-09T10:34:16;4.43;;;1.23;;
19944;SDS011;10134;50.952;6.930;2022-11-09T10:36:48;5.07;;;1.00;;
19944;SDS011;10134;50.952;6.930;2022-11-09T10:39:21;5.38;;;1.10;;
19944;SDS011;10134;50.952;6.930;2022-11-09T10:42:11;4.10;;;0.82;;
19944;SDS011;10134;50.952;6.930;2022-11-09T10:44:57;5.15;;;1.00;;
19944;SDS011;10134;50.952;6.930;2022-11-09T10:47:55;2.22;;;0.80;;
19944;SDS011;10134;50.952;6.930;2022-11-09T10:50:51;1.77;;;0.85;;
19944;SDS011;10134;50.952;6.930;2022-11-09T10:53:38;1.42;;;0.98;;
19944;SDS011;10134;50.952;6.930;2022-11-09T10:56:25;3.92;;;0.77;;
19944;SDS011;10134;50.952;6.930;2022-11-09T11:02:40;6.15;;;0.88;;
19944;SDS011;10134;50.952;6.930;2022-11-09T11:05:28;0.80;;;0.60;;
19944;SDS011;10134;50.952;6.930;2022-11-09T11:08:19;3.35;;;1.05;;
19944;SDS011;10134;50.952;6.930;2022-11-09T11:14:28;2.90;;;0.90;;
19944;SDS011;10134;50.952;6.930;2022-11-09T11:17:28;1.35;;;1.00;;
19944;SDS011;10134;50.952;6.930;2022-11-09T11:20:27;3.67;;;1.10;;
19944;SDS011;10134;50.952;6.930;2022-11-09T11:23:23;2.03;;;1.08;;
19944;SDS011;10134;50.952;6.930;2022-11-09T11:32:23;4.50;;;1.00;;
19944;SDS011;10134;50.952;6.930;2022-11-09T11:41:30;7.57;;;1.40;;
19944;SDS011;10134;50.952;6.930;2022-11-09T11:44:41;4.57;;;1.00;;
19944;SDS011;10134;50.952;6.930;2022-11-09T11:48:19;3.78;;;0.88;;
19944;SDS011;10134;50.952;6.930;2022-11-09T12:00:23;4.15;;;1.15;;
19944;SDS011;10134;50.952;6.930;2022-11-09T12:06:27;4.30;;;1.23;;
19944;SDS011;10134;50.952;6.930;2022-11-09T12:15:43;2.60;;;0.60;;
19944;SDS011;10134;50.952;6.930;2022-11-09T12:21:54;6.13;;;1.15;;
19944;SDS011;10134;50.952;6.930;2022-11-09T12:24:59;5.15;;;1.25;;
19944;SDS011;10134;50.952;6.930;2022-11-09T12:37:17;3.17;;;1.33;;
19944;SDS011;10134;50.952;6.930;2022-11-09T12:46:04;4.43;;;1.02;;
19944;SDS011;10134;50.952;6.930;2022-11-09T12:48:51;4.75;;;1.25;;
19944;SDS011;10134;50.952;6.930;2022-11-09T12:51:42;5.10;;;1.00;;
19944;SDS011;10134;50.952;6.930;2022-11-09T12:54:28;6.82;;;1.13;;
19944;SDS011;10134;50.952;6.930;2022-11-09T12:57:16;7.72;;;1.88;;
19944;SDS011;10134;50.952;6.930;2022-11-09T13:00:07;5.80;;;1.40;;
19944;SDS011;10134;50.952;6.930;2022-11-09T13:03:26;5.13;;;0.90;;
19944;SDS011;10134;50.952;6.930;2022-11-09T13:12:17;5.53;;;1.27;;
19944;SDS011;10134;50.952;6.930;2022-11-09T13:15:20;4.03;;;1.00;;
19944;SDS011;10134;50.952;6.930;2022-11-09T13:27:38;4.95;;;1.40;;
19944;SDS011;10134;50.952;6.930;2022-11-09T13:30:38;6.13;;;1.00;;
19944;SDS011;10134;50.952;6.930;2022-11-09T13:33:27;2.13;;;1.25;;
19944;SDS011;10134;50.952;6.930;2022-11-09T13:36:17;5.32;;;0.95;;
19944;SDS011;10134;50.952;6.930;2022-11-09T13:39:22;2.47;;;0.90;;
19944;SDS011;10134;50.952;6.930;2022-11-09T13:45:28;3.85;;;1.48;;
19944;SDS011;10134;50.952;6.930;2022-11-09T13:48:38;4.43;;;1.08;;
19944;SDS011;10134;50.952;6.930;2022-11-09T13:51:45;6.75;;;1.17;;
19944;SDS011;10134;50.952;6.930;2022-11-09T13:54:33;6.68;;;1.35;;
19944;SDS011;10134;50.952;6.930;2022-11-09T13:57:21;5.25;;;1.55;;
19944;SDS011;10134;50.952;6.930;2022-11-09T14:00:13;3.95;;;1.42;;
19944;SDS011;10134;50.952;6.930;2022-11-09T14:03:23;10.20;;;1.77;;
19944;SDS011;10134;50.952;6.930;2022-11-09T14:06:11;7.45;;;1.42;;
19944;SDS011;10134;50.952;6.930;2022-11-09T14:08:57;4.28;;;1.27;;
19944;SDS011;10134;50.952;6.930;2022-11-09T14:11:51;2.53;;;1.02;;
19944;SDS011;10134;50.952;6.930;2022-11-09T14:20:54;5.57;;;1.20;;
19944;SDS011;10134;50.952;6.930;2022-11-09T14:24:02;5.00;;;1.40;;
19944;SDS011;10134;50.952;6.930;2022-11-09T14:29:53;6.85;;;1.58;;
19944;SDS011;10134;50.952;6.930;2022-11-09T14:32:45;8.60;;;1.70;;
19944;SDS011;10134;50.952;6.930;2022-11-09T14:35:34;8.13;;;1.67;;
19944;SDS011;10134;50.952;6.930;2022-11-09T14:38:21;5.22;;;1.63;;
19944;SDS011;10134;50.952;6.930;2022-11-09T14:41:18;3.00;;;0.95;;
19944;SDS011;10134;50.952;6.930;2022-11-09T14:44:13;5.10;;;1.75;;
19944;SDS011;10134;50.952;6.930;2022-11-09T14:47:04;5.82;;;1.95;;
19944;SDS011;10134;50.952;6.930;2022-11-09T14:49:54;2.78;;;1.30;;
19944;SDS011;10134;50.952;6.930;2022-11-09T14:52:40;3.20;;;0.95;;
19944;SDS011;10134;50.952;6.930;2022-11-09T14:55:26;4.78;;;1.52;;
19944;SDS011;10134;50.952;6.930;2022-11-09T14:58:13;2.72;;;1.33;;
19944;SDS011;10134;50.952;6.930;2022-11-09T15:04:08;2.28;;;1.10;;
19944;SDS011;10134;50.952;6.930;2022-11-09T15:07:04;3.17;;;1.30;;
19944;SDS011;10134;50.952;6.930;2022-11-09T15:09:51;5.25;;;2.10;;
19944;SDS011;10134;50.952;6.930;2022-11-09T15:12:54;6.10;;;1.52;;
19944;SDS011;10134;50.952;6.930;2022-11-09T15:15:48;4.88;;;1.20;;
19944;SDS011;10134;50.952;6.930;2022-11-09T15:18:38;4.13;;;0.90;;
19944;SDS011;10134;50.952;6.930;2022-11-09T15:24:21;2.75;;;1.05;;
19944;SDS011;10134;50.952;6.930;2022-11-09T15:27:32;5.43;;;1.00;;
19944;SDS011;10134;50.952;6.930;2022-11-09T15:30:25;1.45;;;0.70;;
19944;SDS011;10134;50.952;6.930;2022-11-09T15:36:20;5.00;;;0.95;;
19944;SDS011;10134;50.952;6.930;2022-11-09T15:39:17;3.47;;;1.40;;
19944;SDS011;10134;50.952;6.930;2022-11-09T15:42:05;5.45;;;2.40;;
19944;SDS011;10134;50.952;6.930;2022-11-09T15:44:55;8.57;;;1.75;;
19944;SDS011;10134;50.952;6.930;2022-11-09T15:47:53;4.47;;;1.80;;
19944;SDS011;10134;50.952;6.930;2022-11-09T15:50:40;7.97;;;1.40;;
19944;SDS011;10134;50.952;6.930;2022-11-09T15:53:26;7.78;;;1.60;;
19944;SDS011;10134;50.952;6.930;2022-11-09T15:56:17;4.78;;;2.13;;
19944;SDS011;10134;50.952;6.930;2022-11-09T15:59:05;3.65;;;1.30;;
19944;SDS011;10134;50.952;6.930;2022-11-09T16:01:51;4.35;;;1.52;;
19944;SDS011;10134;50.952;6.930;2022-11-09T16:04:38;10.23;;;2.42;;
19944;SDS011;10134;50.952;6.930;2022-11-09T16:07:24;2.50;;;1.08;;
19944;SDS011;10134;50.952;6.930;2022-11-09T16:10:11;5.97;;;1.45;;
19944;SDS011;10134;50.952;6.930;2022-11-09T16:12:58;2.88;;;1.00;;
19944;SDS011;10134;50.952;6.930;2022-11-09T16:15:44;3.60;;;1.10;;
19944;SDS011;10134;50.952;6.930;2022-11-09T16:18:30;3.33;;;1.23;;
19944;SDS011;10134;50.952;6.930;2022-11-09T16:21:16;4.32;;;1.33;;
19944;SDS011;10134;50.952;6.930;2022-11-09T16:24:02;2.58;;;1.20;;
19944;SDS011;10134;50.952;6.930;2022-11-09T16:26:48;3.00;;;1.13;;
19944;SDS011;10134;50.952;6.930;2022-11-09T16:29:35;7.38;;;1.42;;
19944;SDS011;10134;50.952;6.930;2022-11-09T16:32:20;6.18;;;1.38;;
19944;SDS011;10134;50.952;6.930;2022-11-09T16:35:06;6.70;;;1.80;;
19944;SDS011;10134;50.952;6.930;2022-11-09T16:38:11;2.35;;;1.13;;
19944;SDS011;10134;50.952;6.930;2022-11-09T16:40:58;6.90;;;1.50;;
19944;SDS011;10134;50.952;6.930;2022-11-09T16:43:46;7.55;;;3.03;;
19944;SDS011;10134;50.952;6.930;2022-11-09T16:46:34;8.48;;;3.60;;
19944;SDS011;10134;50.952;6.930;2022-11-09T16:49:20;16.92;;;3.47;;
19944;SDS011;10134;50.952;6.930;2022-11-09T16:52:06;5.82;;;2.40;;
19944;SDS011;10134;50.952;6.930;2022-11-09T16:54:52;7.93;;;2.03;;
19944;SDS011;10134;50.952;6.930;2022-11-09T16:57:38;3.53;;;1.83;;
19944;SDS011;10134;50.952;6.930;2022-11-09T17:00:24;6.25;;;2.17;;
19944;SDS011;10134;50.952;6.930;2022-11-09T17:03:30;4.40;;;2.13;;
19944;SDS011;10134;50.952;6.930;2022-11-09T17:06:16;8.77;;;2.13;;
19944;SDS011;10134;50.952;6.930;2022-11-09T17:09:02;5.15;;;2.45;;
19944;SDS011;10134;50.952;6.930;2022-11-09T17:11:48;5.90;;;2.08;;
19944;SDS011;10134;50.952;6.930;2022-11-09T17:14:34;4.30;;;2.20;;
19944;SDS011;10134;50.952;6.930;2022-11-09T17:17:20;3.20;;;1.80;;
19944;SDS011;10134;50.952;6.930;2022-11-09T17:20:07;5.20;;;1.60;;
19944;SDS011;10134;50.952;6.930;2022-11-09T17:22:53;7.28;;;2.00;;
19944;SDS011;10134;50.952;6.930;2022-11-09T17:25:40;6.55;;;1.90;;
19944;SDS011;10134;50.952;6.930;2022-11-09T17:28:25;6.00;;;1.98;;
19944;SDS011;10134;50.952;6.930;2022-11-09T17:31:14;3.38;;;1.50;;
19944;SDS011;10134;50.952;6.930;2022-11-09T17:34:01;10.57;;;3.28;;
19944;SDS011;10134;50.952;6.930;2022-11-09T17:36:47;9.43;;;3.50;;
19944;SDS011;10134;50.952;6.930;2022-11-09T17:39:48;8.82;;;2.85;;